Aviation Digital Data Service (ADDS)

Output produced by METARs form (2024 UTC 20 August 2019)
found at http://www.aviationweather.gov/metar/data/
 
Forecast for: LUKK (CHISINAU INTL , MD)
Text: TAF LUKK 201720Z 2018/2118 VRB04KT CAVOK
Forecast period: 1800 UTC 20 August 2019 to 0800 UTC 21 August 2019
Forecast type: FROM: standard forecast or significant change
Winds: variable direction winds at 5 MPH (4 knots; 2.1 m/s)
Visibility: 6 or more miles 10+ km)
Ceiling: unknown
Clouds: missing
Weather: NSW  (no significant weather)
Text: BECMG 2108/2110 05006KT
Forecast period: 0800 to 1800 UTC 21 August 2019
Forecast type: BECOMING: Conditions expected to become as follows by 1000 UTC 21 August 2019
Winds: from the NE (50 degrees) at 7 MPH (6 knots; 3.1 m/s)
Visibility: 6 or more miles 10+ km)
Ceiling: unknown
Clouds: missing
Weather: NSW  (no significant weather)